sensor_id;sensor_type;location;lat;lon;timestamp;P1;durP1;ratioP1;P2;durP2;ratioP2
39454;SDS011;25155;41.890;23.446;2023-11-19T00:02:22;3.03;;;1.95;;
39454;SDS011;25155;41.890;23.446;2023-11-19T00:04:49;3.25;;;2.00;;
39454;SDS011;25155;41.890;23.446;2023-11-19T00:07:18;2.97;;;1.88;;
39454;SDS011;25155;41.890;23.446;2023-11-19T00:09:45;2.35;;;1.90;;
39454;SDS011;25155;41.890;23.446;2023-11-19T00:12:12;3.53;;;2.08;;
39454;SDS011;25155;41.890;23.446;2023-11-19T00:14:40;3.70;;;1.95;;
39454;SDS011;25155;41.890;23.446;2023-11-19T00:17:07;3.30;;;2.00;;
39454;SDS011;25155;41.890;23.446;2023-11-19T00:19:34;2.53;;;2.00;;
39454;SDS011;25155;41.890;23.446;2023-11-19T00:22:02;3.25;;;2.28;;
39454;SDS011;25155;41.890;23.446;2023-11-19T00:24:31;3.47;;;2.20;;
39454;SDS011;25155;41.890;23.446;2023-11-19T00:26:58;3.30;;;2.28;;
39454;SDS011;25155;41.890;23.446;2023-11-19T00:29:26;3.10;;;2.05;;
39454;SDS011;25155;41.890;23.446;2023-11-19T00:31:53;3.45;;;1.92;;
39454;SDS011;25155;41.890;23.446;2023-11-19T00:34:20;2.85;;;2.10;;
39454;SDS011;25155;41.890;23.446;2023-11-19T00:36:48;2.97;;;1.98;;
39454;SDS011;25155;41.890;23.446;2023-11-19T00:39:15;3.22;;;2.08;;
39454;SDS011;25155;41.890;23.446;2023-11-19T00:41:48;3.95;;;2.10;;
39454;SDS011;25155;41.890;23.446;2023-11-19T00:44:14;3.15;;;2.20;;
39454;SDS011;25155;41.890;23.446;2023-11-19T00:46:42;3.42;;;2.30;;
39454;SDS011;25155;41.890;23.446;2023-11-19T00:49:09;2.85;;;2.03;;
39454;SDS011;25155;41.890;23.446;2023-11-19T00:51:37;3.00;;;2.05;;
39454;SDS011;25155;41.890;23.446;2023-11-19T00:54:04;3.92;;;2.35;;
39454;SDS011;25155;41.890;23.446;2023-11-19T00:56:31;3.80;;;2.17;;
39454;SDS011;25155;41.890;23.446;2023-11-19T00:59:00;3.28;;;2.10;;
39454;SDS011;25155;41.890;23.446;2023-11-19T01:01:27;3.30;;;2.40;;
39454;SDS011;25155;41.890;23.446;2023-11-19T01:03:55;6.13;;;2.55;;
39454;SDS011;25155;41.890;23.446;2023-11-19T01:06:29;3.90;;;2.55;;
39454;SDS011;25155;41.890;23.446;2023-11-19T01:08:57;3.97;;;2.53;;
39454;SDS011;25155;41.890;23.446;2023-11-19T01:11:25;5.50;;;2.67;;
39454;SDS011;25155;41.890;23.446;2023-11-19T01:13:53;3.88;;;2.58;;
39454;SDS011;25155;41.890;23.446;2023-11-19T01:16:22;9.43;;;2.70;;
39454;SDS011;25155;41.890;23.446;2023-11-19T01:18:49;3.75;;;2.55;;
39454;SDS011;25155;41.890;23.446;2023-11-19T01:21:17;4.65;;;2.55;;
39454;SDS011;25155;41.890;23.446;2023-11-19T01:23:44;4.68;;;2.30;;
39454;SDS011;25155;41.890;23.446;2023-11-19T01:26:12;5.82;;;2.63;;
39454;SDS011;25155;41.890;23.446;2023-11-19T01:28:40;4.18;;;2.80;;
39454;SDS011;25155;41.890;23.446;2023-11-19T01:31:10;3.72;;;2.33;;
39454;SDS011;25155;41.890;23.446;2023-11-19T01:33:39;3.63;;;2.45;;
39454;SDS011;25155;41.890;23.446;2023-11-19T01:36:07;6.55;;;2.50;;
39454;SDS011;25155;41.890;23.446;2023-11-19T01:38:36;5.60;;;2.60;;
39454;SDS011;25155;41.890;23.446;2023-11-19T01:41:03;3.97;;;2.50;;
39454;SDS011;25155;41.890;23.446;2023-11-19T01:43:31;6.28;;;2.58;;
39454;SDS011;25155;41.890;23.446;2023-11-19T01:46:00;5.22;;;2.47;;
39454;SDS011;25155;41.890;23.446;2023-11-19T01:48:28;3.85;;;2.65;;
39454;SDS011;25155;41.890;23.446;2023-11-19T01:50:58;5.75;;;2.30;;
39454;SDS011;25155;41.890;23.446;2023-11-19T01:53:25;3.55;;;2.10;;
39454;SDS011;25155;41.890;23.446;2023-11-19T01:55:54;3.75;;;2.30;;
39454;SDS011;25155;41.890;23.446;2023-11-19T01:58:23;2.90;;;2.10;;
39454;SDS011;25155;41.890;23.446;2023-11-19T02:00:51;4.22;;;2.30;;
39454;SDS011;25155;41.890;23.446;2023-11-19T02:03:18;3.72;;;2.55;;
39454;SDS011;25155;41.890;23.446;2023-11-19T02:05:48;3.42;;;2.25;;
39454;SDS011;25155;41.890;23.446;2023-11-19T02:08:17;4.05;;;2.40;;
39454;SDS011;25155;41.890;23.446;2023-11-19T02:10:46;3.88;;;2.72;;
39454;SDS011;25155;41.890;23.446;2023-11-19T02:13:13;3.60;;;2.40;;
39454;SDS011;25155;41.890;23.446;2023-11-19T02:15:41;3.67;;;2.28;;
39454;SDS011;25155;41.890;23.446;2023-11-19T02:18:18;5.00;;;2.47;;
39454;SDS011;25155;41.890;23.446;2023-11-19T02:20:47;3.45;;;2.47;;
39454;SDS011;25155;41.890;23.446;2023-11-19T02:23:15;3.92;;;2.50;;
39454;SDS011;25155;41.890;23.446;2023-11-19T02:25:47;3.80;;;2.40;;
39454;SDS011;25155;41.890;23.446;2023-11-19T02:28:28;3.78;;;2.35;;
39454;SDS011;25155;41.890;23.446;2023-11-19T02:30:55;4.03;;;2.42;;
39454;SDS011;25155;41.890;23.446;2023-11-19T02:33:23;4.28;;;2.60;;
39454;SDS011;25155;41.890;23.446;2023-11-19T02:35:50;3.33;;;2.33;;
39454;SDS011;25155;41.890;23.446;2023-11-19T02:38:17;3.17;;;2.15;;
39454;SDS011;25155;41.890;23.446;2023-11-19T02:40:47;3.72;;;2.28;;
39454;SDS011;25155;41.890;23.446;2023-11-19T02:43:15;3.90;;;2.20;;
39454;SDS011;25155;41.890;23.446;2023-11-19T02:45:45;3.55;;;2.40;;
39454;SDS011;25155;41.890;23.446;2023-11-19T02:48:12;3.65;;;2.50;;
39454;SDS011;25155;41.890;23.446;2023-11-19T02:50:41;3.22;;;2.10;;
39454;SDS011;25155;41.890;23.446;2023-11-19T02:53:08;3.83;;;2.25;;
39454;SDS011;25155;41.890;23.446;2023-11-19T02:55:36;3.28;;;2.28;;
39454;SDS011;25155;41.890;23.446;2023-11-19T02:58:06;4.57;;;2.10;;
39454;SDS011;25155;41.890;23.446;2023-11-19T03:00:46;3.90;;;2.30;;
39454;SDS011;25155;41.890;23.446;2023-11-19T03:03:19;3.20;;;2.17;;
39454;SDS011;25155;41.890;23.446;2023-11-19T03:05:48;2.88;;;2.25;;
39454;SDS011;25155;41.890;23.446;2023-11-19T03:08:15;3.20;;;2.20;;
39454;SDS011;25155;41.890;23.446;2023-11-19T03:10:42;3.50;;;2.22;;
39454;SDS011;25155;41.890;23.446;2023-11-19T03:13:11;5.13;;;2.30;;
39454;SDS011;25155;41.890;23.446;2023-11-19T03:15:40;3.05;;;2.13;;
39454;SDS011;25155;41.890;23.446;2023-11-19T03:18:09;3.70;;;2.50;;
39454;SDS011;25155;41.890;23.446;2023-11-19T03:20:36;4.15;;;2.67;;
39454;SDS011;25155;41.890;23.446;2023-11-19T03:23:04;3.90;;;2.40;;
39454;SDS011;25155;41.890;23.446;2023-11-19T03:25:31;4.22;;;2.55;;
39454;SDS011;25155;41.890;23.446;2023-11-19T03:28:01;4.65;;;2.55;;
39454;SDS011;25155;41.890;23.446;2023-11-19T03:30:30;3.33;;;2.30;;
39454;SDS011;25155;41.890;23.446;2023-11-19T03:32:58;4.00;;;2.40;;
39454;SDS011;25155;41.890;23.446;2023-11-19T03:35:27;5.22;;;2.95;;
39454;SDS011;25155;41.890;23.446;2023-11-19T03:37:55;4.75;;;2.83;;
39454;SDS011;25155;41.890;23.446;2023-11-19T03:40:23;3.80;;;2.42;;
39454;SDS011;25155;41.890;23.446;2023-11-19T03:42:50;3.75;;;2.40;;
39454;SDS011;25155;41.890;23.446;2023-11-19T03:45:17;3.72;;;2.20;;
39454;SDS011;25155;41.890;23.446;2023-11-19T03:47:45;3.85;;;2.40;;
39454;SDS011;25155;41.890;23.446;2023-11-19T03:50:15;3.60;;;2.40;;
39454;SDS011;25155;41.890;23.446;2023-11-19T03:52:47;3.38;;;2.33;;
39454;SDS011;25155;41.890;23.446;2023-11-19T03:55:14;3.30;;;2.42;;
39454;SDS011;25155;41.890;23.446;2023-11-19T03:57:41;3.53;;;2.40;;
39454;SDS011;25155;41.890;23.446;2023-11-19T04:00:09;3.80;;;2.60;;
39454;SDS011;25155;41.890;23.446;2023-11-19T04:02:39;3.90;;;2.40;;
39454;SDS011;25155;41.890;23.446;2023-11-19T04:05:07;3.97;;;2.40;;
39454;SDS011;25155;41.890;23.446;2023-11-19T04:07:35;3.65;;;2.50;;
39454;SDS011;25155;41.890;23.446;2023-11-19T04:10:04;4.47;;;2.55;;
39454;SDS011;25155;41.890;23.446;2023-11-19T04:12:32;3.10;;;2.40;;
39454;SDS011;25155;41.890;23.446;2023-11-19T04:14:59;3.97;;;2.60;;
39454;SDS011;25155;41.890;23.446;2023-11-19T04:17:26;4.75;;;2.78;;
39454;SDS011;25155;41.890;23.446;2023-11-19T04:19:55;4.28;;;2.28;;
39454;SDS011;25155;41.890;23.446;2023-11-19T04:22:22;3.70;;;2.50;;
39454;SDS011;25155;41.890;23.446;2023-11-19T04:24:49;4.47;;;2.80;;
39454;SDS011;25155;41.890;23.446;2023-11-19T04:27:18;4.47;;;2.70;;
39454;SDS011;25155;41.890;23.446;2023-11-19T04:29:45;4.38;;;3.05;;
39454;SDS011;25155;41.890;23.446;2023-11-19T04:32:16;4.72;;;2.80;;
39454;SDS011;25155;41.890;23.446;2023-11-19T04:34:43;4.28;;;2.85;;
39454;SDS011;25155;41.890;23.446;2023-11-19T04:37:11;3.90;;;2.70;;
39454;SDS011;25155;41.890;23.446;2023-11-19T04:39:38;3.78;;;2.53;;
39454;SDS011;25155;41.890;23.446;2023-11-19T04:42:05;4.25;;;2.65;;
39454;SDS011;25155;41.890;23.446;2023-11-19T04:44:34;4.10;;;2.55;;
39454;SDS011;25155;41.890;23.446;2023-11-19T04:47:02;4.07;;;2.75;;
39454;SDS011;25155;41.890;23.446;2023-11-19T04:49:29;4.32;;;2.83;;
39454;SDS011;25155;41.890;23.446;2023-11-19T04:51:57;4.13;;;2.55;;
39454;SDS011;25155;41.890;23.446;2023-11-19T04:54:24;4.72;;;2.83;;
39454;SDS011;25155;41.890;23.446;2023-11-19T04:56:51;4.00;;;2.80;;
39454;SDS011;25155;41.890;23.446;2023-11-19T04:59:18;4.47;;;2.80;;
39454;SDS011;25155;41.890;23.446;2023-11-19T05:01:47;4.75;;;2.70;;
39454;SDS011;25155;41.890;23.446;2023-11-19T05:04:16;4.60;;;2.67;;
39454;SDS011;25155;41.890;23.446;2023-11-19T05:06:44;4.55;;;2.97;;
39454;SDS011;25155;41.890;23.446;2023-11-19T05:09:11;4.50;;;2.60;;
39454;SDS011;25155;41.890;23.446;2023-11-19T05:11:39;3.97;;;2.80;;
39454;SDS011;25155;41.890;23.446;2023-11-19T05:14:08;4.35;;;2.67;;
39454;SDS011;25155;41.890;23.446;2023-11-19T05:16:35;4.28;;;2.97;;
39454;SDS011;25155;41.890;23.446;2023-11-19T05:19:07;3.80;;;2.58;;
39454;SDS011;25155;41.890;23.446;2023-11-19T05:21:34;4.55;;;2.92;;
39454;SDS011;25155;41.890;23.446;2023-11-19T05:24:01;4.78;;;2.95;;
39454;SDS011;25155;41.890;23.446;2023-11-19T05:26:30;4.00;;;2.60;;
39454;SDS011;25155;41.890;23.446;2023-11-19T05:28:58;4.07;;;2.65;;
39454;SDS011;25155;41.890;23.446;2023-11-19T05:31:25;4.15;;;2.72;;
39454;SDS011;25155;41.890;23.446;2023-11-19T05:33:52;4.10;;;2.65;;
39454;SDS011;25155;41.890;23.446;2023-11-19T05:36:21;4.40;;;2.58;;
39454;SDS011;25155;41.890;23.446;2023-11-19T05:38:48;3.90;;;2.33;;
39454;SDS011;25155;41.890;23.446;2023-11-19T05:41:16;4.15;;;2.45;;
39454;SDS011;25155;41.890;23.446;2023-11-19T05:43:43;4.10;;;2.45;;
39454;SDS011;25155;41.890;23.446;2023-11-19T05:46:10;3.38;;;2.33;;
39454;SDS011;25155;41.890;23.446;2023-11-19T05:48:39;3.78;;;2.40;;
39454;SDS011;25155;41.890;23.446;2023-11-19T05:51:06;3.60;;;2.33;;
39454;SDS011;25155;41.890;23.446;2023-11-19T05:53:35;3.53;;;2.30;;
39454;SDS011;25155;41.890;23.446;2023-11-19T05:56:02;3.40;;;2.20;;
39454;SDS011;25155;41.890;23.446;2023-11-19T05:58:29;3.90;;;2.50;;
39454;SDS011;25155;41.890;23.446;2023-11-19T06:00:58;4.13;;;2.60;;
39454;SDS011;25155;41.890;23.446;2023-11-19T06:03:28;5.68;;;2.42;;
39454;SDS011;25155;41.890;23.446;2023-11-19T06:05:55;4.25;;;2.45;;
39454;SDS011;25155;41.890;23.446;2023-11-19T06:08:22;3.70;;;2.40;;
39454;SDS011;25155;41.890;23.446;2023-11-19T06:10:51;4.30;;;2.63;;
39454;SDS011;25155;41.890;23.446;2023-11-19T06:13:18;4.03;;;2.60;;
39454;SDS011;25155;41.890;23.446;2023-11-19T06:15:45;3.60;;;2.30;;
39454;SDS011;25155;41.890;23.446;2023-11-19T06:18:13;3.05;;;2.10;;
39454;SDS011;25155;41.890;23.446;2023-11-19T06:20:41;3.28;;;2.10;;
39454;SDS011;25155;41.890;23.446;2023-11-19T06:23:08;3.28;;;2.10;;
39454;SDS011;25155;41.890;23.446;2023-11-19T06:25:36;3.10;;;2.00;;
39454;SDS011;25155;41.890;23.446;2023-11-19T06:28:05;4.13;;;2.20;;
39454;SDS011;25155;41.890;23.446;2023-11-19T06:30:33;4.40;;;2.40;;
39454;SDS011;25155;41.890;23.446;2023-11-19T06:33:02;4.70;;;2.40;;
39454;SDS011;25155;41.890;23.446;2023-11-19T06:35:30;6.20;;;2.40;;
39454;SDS011;25155;41.890;23.446;2023-11-19T06:38:01;4.88;;;2.42;;
39454;SDS011;25155;41.890;23.446;2023-11-19T06:40:30;4.78;;;2.40;;
39454;SDS011;25155;41.890;23.446;2023-11-19T06:42:57;4.10;;;2.30;;
39454;SDS011;25155;41.890;23.446;2023-11-19T06:45:26;3.35;;;2.05;;
39454;SDS011;25155;41.890;23.446;2023-11-19T06:47:53;3.90;;;2.50;;
39454;SDS011;25155;41.890;23.446;2023-11-19T06:50:20;3.83;;;2.40;;
39454;SDS011;25155;41.890;23.446;2023-11-19T06:52:49;3.67;;;2.50;;
39454;SDS011;25155;41.890;23.446;2023-11-19T06:55:16;4.38;;;2.80;;
39454;SDS011;25155;41.890;23.446;2023-11-19T06:57:43;3.90;;;2.47;;
39454;SDS011;25155;41.890;23.446;2023-11-19T07:00:11;3.90;;;2.67;;
39454;SDS011;25155;41.890;23.446;2023-11-19T07:02:40;3.70;;;2.35;;
39454;SDS011;25155;41.890;23.446;2023-11-19T07:05:09;4.28;;;2.50;;
39454;SDS011;25155;41.890;23.446;2023-11-19T07:07:37;3.85;;;2.30;;
39454;SDS011;25155;41.890;23.446;2023-11-19T07:10:06;3.50;;;2.33;;
39454;SDS011;25155;41.890;23.446;2023-11-19T07:12:34;3.72;;;2.40;;
39454;SDS011;25155;41.890;23.446;2023-11-19T07:15:02;3.35;;;2.13;;
39454;SDS011;25155;41.890;23.446;2023-11-19T07:17:30;4.50;;;2.55;;
39454;SDS011;25155;41.890;23.446;2023-11-19T07:19:59;4.55;;;2.72;;
39454;SDS011;25155;41.890;23.446;2023-11-19T07:22:26;3.67;;;2.03;;
39454;SDS011;25155;41.890;23.446;2023-11-19T07:24:55;2.97;;;1.80;;
39454;SDS011;25155;41.890;23.446;2023-11-19T07:27:22;2.67;;;1.80;;
39454;SDS011;25155;41.890;23.446;2023-11-19T07:29:50;3.38;;;2.22;;
39454;SDS011;25155;41.890;23.446;2023-11-19T07:32:17;3.80;;;2.25;;
39454;SDS011;25155;41.890;23.446;2023-11-19T07:34:44;3.65;;;2.30;;
39454;SDS011;25155;41.890;23.446;2023-11-19T07:37:13;3.30;;;2.00;;
39454;SDS011;25155;41.890;23.446;2023-11-19T07:39:42;2.95;;;1.83;;
39454;SDS011;25155;41.890;23.446;2023-11-19T07:42:09;2.40;;;1.73;;
39454;SDS011;25155;41.890;23.446;2023-11-19T07:44:37;3.40;;;2.00;;
39454;SDS011;25155;41.890;23.446;2023-11-19T07:47:04;3.20;;;2.25;;
39454;SDS011;25155;41.890;23.446;2023-11-19T07:49:32;2.30;;;1.60;;
39454;SDS011;25155;41.890;23.446;2023-11-19T07:51:59;2.03;;;1.60;;
39454;SDS011;25155;41.890;23.446;2023-11-19T07:54:29;2.58;;;1.70;;
39454;SDS011;25155;41.890;23.446;2023-11-19T07:56:58;3.60;;;2.50;;
39454;SDS011;25155;41.890;23.446;2023-11-19T07:59:25;4.35;;;2.60;;
39454;SDS011;25155;41.890;23.446;2023-11-19T08:01:52;4.00;;;2.40;;
39454;SDS011;25155;41.890;23.446;2023-11-19T08:04:20;3.55;;;2.40;;
39454;SDS011;25155;41.890;23.446;2023-11-19T08:06:47;3.45;;;2.30;;
39454;SDS011;25155;41.890;23.446;2023-11-19T08:09:14;1.70;;;1.52;;
39454;SDS011;25155;41.890;23.446;2023-11-19T08:11:43;3.00;;;1.95;;
39454;SDS011;25155;41.890;23.446;2023-11-19T08:14:11;3.83;;;2.10;;
39454;SDS011;25155;41.890;23.446;2023-11-19T08:16:38;2.47;;;1.70;;
39454;SDS011;25155;41.890;23.446;2023-11-19T08:19:06;2.28;;;1.63;;
39454;SDS011;25155;41.890;23.446;2023-11-19T08:21:34;3.00;;;2.20;;
39454;SDS011;25155;41.890;23.446;2023-11-19T08:24:01;2.80;;;1.77;;
39454;SDS011;25155;41.890;23.446;2023-11-19T08:26:29;2.42;;;1.63;;
39454;SDS011;25155;41.890;23.446;2023-11-19T08:28:57;4.18;;;2.60;;
39454;SDS011;25155;41.890;23.446;2023-11-19T08:31:24;2.35;;;1.70;;
39454;SDS011;25155;41.890;23.446;2023-11-19T08:33:52;2.35;;;1.60;;
39454;SDS011;25155;41.890;23.446;2023-11-19T08:36:19;2.85;;;1.90;;
39454;SDS011;25155;41.890;23.446;2023-11-19T08:38:46;2.60;;;1.75;;
39454;SDS011;25155;41.890;23.446;2023-11-19T08:41:14;4.53;;;2.80;;
39454;SDS011;25155;41.890;23.446;2023-11-19T08:43:43;3.58;;;2.20;;
39454;SDS011;25155;41.890;23.446;2023-11-19T08:46:11;3.75;;;2.30;;
39454;SDS011;25155;41.890;23.446;2023-11-19T08:48:38;4.07;;;2.50;;
39454;SDS011;25155;41.890;23.446;2023-11-19T08:51:06;3.60;;;2.22;;
39454;SDS011;25155;41.890;23.446;2023-11-19T08:53:34;4.25;;;2.33;;
39454;SDS011;25155;41.890;23.446;2023-11-19T08:56:01;4.15;;;2.63;;
39454;SDS011;25155;41.890;23.446;2023-11-19T08:58:28;3.58;;;2.28;;
39454;SDS011;25155;41.890;23.446;2023-11-19T09:00:56;3.50;;;2.35;;
39454;SDS011;25155;41.890;23.446;2023-11-19T09:03:24;4.85;;;2.38;;
39454;SDS011;25155;41.890;23.446;2023-11-19T09:05:55;3.85;;;2.45;;
39454;SDS011;25155;41.890;23.446;2023-11-19T09:08:22;3.80;;;2.40;;
39454;SDS011;25155;41.890;23.446;2023-11-19T09:10:49;3.85;;;2.42;;
39454;SDS011;25155;41.890;23.446;2023-11-19T09:13:16;3.53;;;2.30;;
39454;SDS011;25155;41.890;23.446;2023-11-19T09:15:44;3.53;;;2.50;;
39454;SDS011;25155;41.890;23.446;2023-11-19T09:18:11;3.70;;;2.42;;
39454;SDS011;25155;41.890;23.446;2023-11-19T09:20:40;4.97;;;2.53;;
39454;SDS011;25155;41.890;23.446;2023-11-19T09:23:07;4.05;;;2.47;;
39454;SDS011;25155;41.890;23.446;2023-11-19T09:25:35;3.55;;;2.38;;
39454;SDS011;25155;41.890;23.446;2023-11-19T09:28:02;3.85;;;2.25;;
39454;SDS011;25155;41.890;23.446;2023-11-19T09:30:30;4.78;;;2.70;;
39454;SDS011;25155;41.890;23.446;2023-11-19T09:32:59;3.60;;;2.40;;
39454;SDS011;25155;41.890;23.446;2023-11-19T09:35:26;3.50;;;2.30;;
39454;SDS011;25155;41.890;23.446;2023-11-19T09:37:55;4.05;;;2.50;;
39454;SDS011;25155;41.890;23.446;2023-11-19T09:40:22;3.55;;;2.33;;
39454;SDS011;25155;41.890;23.446;2023-11-19T09:42:50;3.30;;;2.30;;
39454;SDS011;25155;41.890;23.446;2023-11-19T09:45:17;3.92;;;2.47;;
39454;SDS011;25155;41.890;23.446;2023-11-19T09:47:47;3.83;;;2.70;;
39454;SDS011;25155;41.890;23.446;2023-11-19T09:50:19;4.20;;;2.90;;
39454;SDS011;25155;41.890;23.446;2023-11-19T09:52:46;3.67;;;2.45;;
39454;SDS011;25155;41.890;23.446;2023-11-19T09:55:15;3.70;;;2.50;;
39454;SDS011;25155;41.890;23.446;2023-11-19T09:57:42;4.05;;;2.60;;
39454;SDS011;25155;41.890;23.446;2023-11-19T10:00:11;3.42;;;2.30;;
39454;SDS011;25155;41.890;23.446;2023-11-19T10:02:40;3.60;;;2.33;;
39454;SDS011;25155;41.890;23.446;2023-11-19T10:05:11;3.27;;;2.27;;
39454;SDS011;25155;41.890;23.446;2023-11-19T10:07:40;4.70;;;2.65;;
39454;SDS011;25155;41.890;23.446;2023-11-19T10:10:08;3.90;;;2.35;;
39454;SDS011;25155;41.890;23.446;2023-11-19T10:12:40;2.80;;;2.08;;
39454;SDS011;25155;41.890;23.446;2023-11-19T10:15:08;2.47;;;1.90;;
39454;SDS011;25155;41.890;23.446;2023-11-19T10:17:43;4.38;;;2.88;;
39454;SDS011;25155;41.890;23.446;2023-11-19T10:20:11;4.38;;;2.17;;
39454;SDS011;25155;41.890;23.446;2023-11-19T10:22:38;3.35;;;2.30;;
39454;SDS011;25155;41.890;23.446;2023-11-19T10:25:05;3.45;;;2.30;;
39454;SDS011;25155;41.890;23.446;2023-11-19T10:27:50;3.35;;;2.42;;
39454;SDS011;25155;41.890;23.446;2023-11-19T10:30:18;3.70;;;2.40;;
39454;SDS011;25155;41.890;23.446;2023-11-19T10:32:50;4.05;;;2.20;;
39454;SDS011;25155;41.890;23.446;2023-11-19T10:35:31;3.03;;;2.20;;
39454;SDS011;25155;41.890;23.446;2023-11-19T10:37:59;3.92;;;2.58;;
39454;SDS011;25155;41.890;23.446;2023-11-19T10:40:38;3.33;;;2.35;;
39454;SDS011;25155;41.890;23.446;2023-11-19T10:43:08;3.83;;;2.40;;
39454;SDS011;25155;41.890;23.446;2023-11-19T10:45:36;3.78;;;2.45;;
39454;SDS011;25155;41.890;23.446;2023-11-19T10:48:04;3.92;;;2.58;;
39454;SDS011;25155;41.890;23.446;2023-11-19T10:50:32;3.80;;;2.38;;
39454;SDS011;25155;41.890;23.446;2023-11-19T10:53:01;4.30;;;2.30;;
39454;SDS011;25155;41.890;23.446;2023-11-19T10:55:31;4.15;;;2.63;;
39454;SDS011;25155;41.890;23.446;2023-11-19T10:58:01;4.18;;;2.47;;
39454;SDS011;25155;41.890;23.446;2023-11-19T11:00:33;3.95;;;2.30;;
39454;SDS011;25155;41.890;23.446;2023-11-19T11:03:16;3.88;;;2.50;;
39454;SDS011;25155;41.890;23.446;2023-11-19T11:05:46;3.60;;;2.30;;
39454;SDS011;25155;41.890;23.446;2023-11-19T11:08:14;3.80;;;2.70;;
39454;SDS011;25155;41.890;23.446;2023-11-19T11:10:44;3.63;;;2.40;;
39454;SDS011;25155;41.890;23.446;2023-11-19T11:13:13;3.03;;;2.30;;
39454;SDS011;25155;41.890;23.446;2023-11-19T11:15:42;3.33;;;2.38;;
39454;SDS011;25155;41.890;23.446;2023-11-19T11:18:12;3.35;;;2.13;;
39454;SDS011;25155;41.890;23.446;2023-11-19T11:20:40;4.25;;;2.50;;
39454;SDS011;25155;41.890;23.446;2023-11-19T11:23:13;3.97;;;2.40;;
39454;SDS011;25155;41.890;23.446;2023-11-19T11:26:02;3.75;;;2.22;;
39454;SDS011;25155;41.890;23.446;2023-11-19T11:28:48;3.15;;;2.20;;
39454;SDS011;25155;41.890;23.446;2023-11-19T11:31:26;3.40;;;2.28;;
39454;SDS011;25155;41.890;23.446;2023-11-19T11:37:18;3.72;;;2.20;;
39454;SDS011;25155;41.890;23.446;2023-11-19T11:39:49;3.83;;;2.30;;
39454;SDS011;25155;41.890;23.446;2023-11-19T11:42:35;3.65;;;2.25;;
39454;SDS011;25155;41.890;23.446;2023-11-19T11:45:03;3.47;;;2.40;;
39454;SDS011;25155;41.890;23.446;2023-11-19T11:50:51;3.67;;;2.20;;
39454;SDS011;25155;41.890;23.446;2023-11-19T11:53:24;5.13;;;2.58;;
39454;SDS011;25155;41.890;23.446;2023-11-19T11:55:53;3.92;;;2.20;;
39454;SDS011;25155;41.890;23.446;2023-11-19T11:58:25;3.95;;;2.55;;
39454;SDS011;25155;41.890;23.446;2023-11-19T12:00:57;3.28;;;2.08;;
39454;SDS011;25155;41.890;23.446;2023-11-19T12:03:28;3.80;;;2.40;;
39454;SDS011;25155;41.890;23.446;2023-11-19T12:05:57;7.70;;;2.65;;
39454;SDS011;25155;41.890;23.446;2023-11-19T12:08:25;3.83;;;2.33;;
39454;SDS011;25155;41.890;23.446;2023-11-19T12:10:54;3.25;;;2.20;;
39454;SDS011;25155;41.890;23.446;2023-11-19T12:13:24;4.30;;;2.50;;
39454;SDS011;25155;41.890;23.446;2023-11-19T12:16:10;3.30;;;2.30;;
39454;SDS011;25155;41.890;23.446;2023-11-19T12:18:42;3.47;;;2.42;;
39454;SDS011;25155;41.890;23.446;2023-11-19T12:21:10;3.33;;;2.22;;
39454;SDS011;25155;41.890;23.446;2023-11-19T12:23:44;3.33;;;2.20;;
39454;SDS011;25155;41.890;23.446;2023-11-19T12:29:09;3.40;;;2.25;;
39454;SDS011;25155;41.890;23.446;2023-11-19T12:31:37;3.67;;;2.50;;
39454;SDS011;25155;41.890;23.446;2023-11-19T12:34:09;3.22;;;2.17;;
39454;SDS011;25155;41.890;23.446;2023-11-19T12:36:39;3.50;;;2.25;;
39454;SDS011;25155;41.890;23.446;2023-11-19T12:39:08;2.75;;;2.05;;
39454;SDS011;25155;41.890;23.446;2023-11-19T12:41:51;5.07;;;2.10;;
39454;SDS011;25155;41.890;23.446;2023-11-19T12:44:19;3.70;;;2.22;;
39454;SDS011;25155;41.890;23.446;2023-11-19T12:46:59;3.20;;;1.90;;
39454;SDS011;25155;41.890;23.446;2023-11-19T12:49:29;3.28;;;2.20;;
39454;SDS011;25155;41.890;23.446;2023-11-19T12:51:57;3.08;;;2.17;;
39454;SDS011;25155;41.890;23.446;2023-11-19T12:54:31;2.65;;;1.90;;
39454;SDS011;25155;41.890;23.446;2023-11-19T12:57:00;3.60;;;2.10;;
39454;SDS011;25155;41.890;23.446;2023-11-19T12:59:27;2.78;;;2.17;;
39454;SDS011;25155;41.890;23.446;2023-11-19T13:01:56;2.35;;;1.80;;
39454;SDS011;25155;41.890;23.446;2023-11-19T13:04:23;2.42;;;1.67;;
39454;SDS011;25155;41.890;23.446;2023-11-19T13:06:57;2.30;;;1.70;;
39454;SDS011;25155;41.890;23.446;2023-11-19T13:09:25;2.92;;;1.73;;
39454;SDS011;25155;41.890;23.446;2023-11-19T13:11:54;2.70;;;2.00;;
39454;SDS011;25155;41.890;23.446;2023-11-19T13:14:24;2.05;;;1.70;;
39454;SDS011;25155;41.890;23.446;2023-11-19T13:17:04;1.63;;;1.40;;
39454;SDS011;25155;41.890;23.446;2023-11-19T13:19:34;2.33;;;1.90;;
39454;SDS011;25155;41.890;23.446;2023-11-19T13:22:01;2.67;;;2.00;;
39454;SDS011;25155;41.890;23.446;2023-11-19T13:24:29;2.15;;;1.70;;
39454;SDS011;25155;41.890;23.446;2023-11-19T13:26:56;4.00;;;2.22;;
39454;SDS011;25155;41.890;23.446;2023-11-19T13:29:24;2.90;;;2.00;;
39454;SDS011;25155;41.890;23.446;2023-11-19T13:31:51;2.83;;;2.00;;
39454;SDS011;25155;41.890;23.446;2023-11-19T13:34:19;3.28;;;2.15;;
39454;SDS011;25155;41.890;23.446;2023-11-19T13:36:47;3.22;;;1.90;;
39454;SDS011;25155;41.890;23.446;2023-11-19T13:39:14;2.40;;;1.90;;
39454;SDS011;25155;41.890;23.446;2023-11-19T13:41:48;2.63;;;1.80;;
39454;SDS011;25155;41.890;23.446;2023-11-19T13:44:16;3.00;;;1.90;;
39454;SDS011;25155;41.890;23.446;2023-11-19T13:46:44;3.03;;;1.80;;
39454;SDS011;25155;41.890;23.446;2023-11-19T13:49:11;3.28;;;2.20;;
39454;SDS011;25155;41.890;23.446;2023-11-19T13:51:39;3.08;;;1.90;;
39454;SDS011;25155;41.890;23.446;2023-11-19T13:54:08;3.40;;;2.30;;
39454;SDS011;25155;41.890;23.446;2023-11-19T13:56:35;2.63;;;2.10;;
39454;SDS011;25155;41.890;23.446;2023-11-19T13:59:02;3.75;;;2.10;;
39454;SDS011;25155;41.890;23.446;2023-11-19T14:01:30;3.50;;;2.22;;
39454;SDS011;25155;41.890;23.446;2023-11-19T14:03:58;3.40;;;2.20;;
39454;SDS011;25155;41.890;23.446;2023-11-19T14:06:25;3.70;;;2.47;;
39454;SDS011;25155;41.890;23.446;2023-11-19T14:08:52;3.20;;;2.10;;
39454;SDS011;25155;41.890;23.446;2023-11-19T14:11:21;3.65;;;2.35;;
39454;SDS011;25155;41.890;23.446;2023-11-19T14:13:49;3.85;;;2.53;;
39454;SDS011;25155;41.890;23.446;2023-11-19T14:16:17;3.22;;;2.20;;
39454;SDS011;25155;41.890;23.446;2023-11-19T14:18:44;3.92;;;2.30;;
39454;SDS011;25155;41.890;23.446;2023-11-19T14:21:14;4.10;;;2.40;;
39454;SDS011;25155;41.890;23.446;2023-11-19T14:23:44;3.40;;;2.35;;
39454;SDS011;25155;41.890;23.446;2023-11-19T14:26:12;3.55;;;2.30;;
39454;SDS011;25155;41.890;23.446;2023-11-19T14:28:40;3.85;;;2.38;;
39454;SDS011;25155;41.890;23.446;2023-11-19T14:31:07;4.32;;;2.85;;
39454;SDS011;25155;41.890;23.446;2023-11-19T14:33:35;3.83;;;2.65;;
39454;SDS011;25155;41.890;23.446;2023-11-19T14:36:03;4.00;;;2.50;;
39454;SDS011;25155;41.890;23.446;2023-11-19T14:38:32;7.50;;;3.22;;
39454;SDS011;25155;41.890;23.446;2023-11-19T14:40:59;3.80;;;2.50;;
39454;SDS011;25155;41.890;23.446;2023-11-19T14:43:27;4.57;;;2.60;;
39454;SDS011;25155;41.890;23.446;2023-11-19T14:45:56;4.35;;;2.80;;
39454;SDS011;25155;41.890;23.446;2023-11-19T14:48:23;3.40;;;2.42;;
39454;SDS011;25155;41.890;23.446;2023-11-19T14:50:50;4.50;;;2.55;;
39454;SDS011;25155;41.890;23.446;2023-11-19T14:53:17;3.85;;;2.55;;